createdAt,value
2023-04-01T00:01:12.894Z,7.90
2023-04-01T00:03:42.159Z,7.90
2023-04-01T00:06:12.005Z,7.88
2023-04-01T00:08:40.982Z,7.87
2023-04-01T00:11:09.750Z,7.86
2023-04-01T00:13:38.570Z,7.86
2023-04-01T00:16:19.940Z,7.84
2023-04-01T00:18:50.330Z,7.86
2023-04-01T00:21:19.166Z,7.85
2023-04-01T00:23:47.928Z,7.83
2023-04-01T00:26:19.913Z,7.83
2023-04-01T00:28:48.977Z,7.77
2023-04-01T00:31:17.866Z,7.84
2023-04-01T00:33:46.697Z,7.82
2023-04-01T00:36:16.834Z,7.80
2023-04-01T00:38:46.876Z,7.81
2023-04-01T00:41:16.500Z,7.82
2023-04-01T00:43:45.944Z,7.82
2023-04-01T00:46:14.969Z,7.81
2023-04-01T00:48:45.204Z,7.78
2023-04-01T00:51:15.367Z,7.77
2023-04-01T00:53:45.473Z,7.78
2023-04-01T00:56:14.934Z,7.78
2023-04-01T00:58:45.447Z,7.77
2023-04-01T01:01:14.677Z,7.76
2023-04-01T01:03:43.718Z,7.74
2023-04-01T01:06:26.006Z,7.75
2023-04-01T01:09:08.586Z,7.75
2023-04-01T01:11:43.531Z,7.75
2023-04-01T01:14:21.275Z,7.73
2023-04-01T01:16:51.406Z,7.69
2023-04-01T01:19:25.347Z,7.72
2023-04-01T01:21:58.165Z,7.66
2023-04-01T01:24:35.614Z,7.71
2023-04-01T01:27:06.304Z,7.69
2023-04-01T01:29:47.040Z,7.68
2023-04-01T01:32:19.233Z,7.61
2023-04-01T01:34:49.542Z,7.69
2023-04-01T01:37:19.076Z,7.68
2023-04-01T01:39:48.338Z,7.67
2023-04-01T01:42:17.550Z,7.67
2023-04-01T01:44:46.758Z,7.69
2023-04-01T01:47:15.537Z,7.70
2023-04-01T01:49:44.679Z,7.71
2023-04-01T01:52:13.635Z,7.70
2023-04-01T01:54:50.307Z,7.69
2023-04-01T01:57:19.838Z,7.70
2023-04-01T01:59:52.237Z,7.70
2023-04-01T02:02:26.151Z,7.69
2023-04-01T02:04:55.071Z,7.67
2023-04-01T02:07:26.114Z,7.65
2023-04-01T02:09:55.214Z,7.62
2023-04-01T02:12:24.502Z,7.63
2023-04-01T02:14:54.446Z,7.62
2023-04-01T02:17:24.013Z,7.61
2023-04-01T02:19:55.631Z,7.59
2023-04-01T02:22:27.876Z,7.57
2023-04-01T02:24:57.245Z,7.57
2023-04-01T02:27:26.331Z,7.55
2023-04-01T02:29:56.363Z,7.56
2023-04-01T02:32:25.262Z,7.54
2023-04-01T02:34:54.356Z,7.51
2023-04-01T02:37:23.230Z,7.50
2023-04-01T02:39:52.045Z,7.50
2023-04-01T02:42:21.139Z,7.49
2023-04-01T02:44:50.830Z,7.46
2023-04-01T02:47:19.631Z,7.40
2023-04-01T02:49:48.438Z,7.36
2023-04-01T02:52:17.280Z,7.33
2023-04-01T02:54:46.098Z,7.31
2023-04-01T02:57:15.545Z,7.29
2023-04-01T02:59:44.473Z,7.28
2023-04-01T03:02:13.226Z,7.26
2023-04-01T03:04:42.168Z,7.20
2023-04-01T03:07:11.909Z,7.29
2023-04-01T03:09:40.874Z,7.31
2023-04-01T03:12:09.744Z,7.32
2023-04-01T03:14:44.116Z,7.31
2023-04-01T03:17:12.870Z,7.31
2023-04-01T03:19:41.846Z,7.31
2023-04-01T03:22:11.199Z,7.31
2023-04-01T03:24:39.962Z,7.29
2023-04-01T03:27:09.058Z,7.26
2023-04-01T03:29:37.870Z,7.25
2023-04-01T03:32:06.807Z,7.24
2023-04-01T03:34:35.639Z,7.23
2023-04-01T03:37:04.994Z,7.05
2023-04-01T03:39:34.042Z,7.16
2023-04-01T03:42:02.917Z,7.10
2023-04-01T03:44:34.104Z,7.15
2023-04-01T03:47:03.682Z,7.15
2023-04-01T03:49:33.076Z,7.13
2023-04-01T03:52:02.096Z,7.12
2023-04-01T03:54:31.102Z,7.11
2023-04-01T03:57:00.085Z,7.10
2023-04-01T03:59:29.190Z,7.11
2023-04-01T04:05:42.165Z,7.17
2023-04-01T04:09:10.492Z,7.18
2023-04-01T04:11:39.687Z,7.20
2023-04-01T04:14:08.665Z,7.24
2023-04-01T04:16:38.489Z,7.26
2023-04-01T04:19:07.350Z,7.25
2023-04-01T04:21:36.324Z,7.25
2023-04-01T04:24:05.516Z,7.25
2023-04-01T04:26:52.356Z,7.26
2023-04-01T04:29:21.098Z,7.25
2023-04-01T04:31:50.111Z,7.23
2023-04-01T04:34:19.379Z,7.20
2023-04-01T04:36:48.423Z,7.16
2023-04-01T04:39:17.614Z,7.14
2023-04-01T04:41:47.275Z,7.13
2023-04-01T04:44:16.130Z,7.11
2023-04-01T04:46:45.218Z,7.07
2023-04-01T04:49:16.245Z,7.05
2023-04-01T04:51:45.176Z,7.04
2023-04-01T04:54:14.986Z,7.03
2023-04-01T04:57:05.469Z,7.00
2023-04-01T04:59:38.824Z,6.95
2023-04-01T05:02:11.891Z,6.90
2023-04-01T05:04:40.749Z,6.87
2023-04-01T05:07:11.773Z,6.86
2023-04-01T05:09:41.238Z,6.85
2023-04-01T05:12:12.860Z,6.83
2023-04-01T05:15:08.011Z,6.80
2023-04-01T05:17:39.831Z,6.76
2023-04-01T05:20:09.527Z,6.75
2023-04-01T05:22:47.097Z,6.74
2023-04-01T05:25:16.466Z,6.71
2023-04-01T05:38:01.575Z,6.58
2023-04-01T05:40:37.600Z,6.53
2023-04-01T05:43:07.258Z,6.51
2023-04-01T05:45:36.870Z,6.50
2023-04-01T05:48:28.614Z,6.47
2023-04-01T05:50:57.428Z,6.45
2023-04-01T05:53:26.500Z,6.45
2023-04-01T05:55:55.376Z,6.46
2023-04-01T05:58:24.646Z,6.46
2023-04-01T06:01:05.838Z,6.45
2023-04-01T06:03:39.444Z,6.42
2023-04-01T06:06:14.039Z,6.39
2023-04-01T06:08:43.285Z,6.39
2023-04-01T06:11:21.746Z,6.39
2023-04-01T06:14:06.154Z,6.40
2023-04-01T06:16:51.226Z,6.38
2023-04-01T06:19:24.343Z,6.37
2023-04-01T06:21:57.924Z,6.38
2023-04-01T06:24:32.943Z,6.38
2023-04-01T06:27:03.238Z,6.38
2023-04-01T06:29:45.881Z,6.41
2023-04-01T06:35:30.521Z,6.45
2023-04-01T06:38:14.997Z,6.45
2023-04-01T06:40:52.333Z,6.45
2023-04-01T06:43:30.157Z,6.48
2023-04-01T06:46:24.570Z,6.53
2023-04-01T06:49:37.967Z,6.58
2023-04-01T06:52:27.300Z,6.59
2023-04-01T06:55:29.441Z,6.58
2023-04-01T06:58:23.210Z,6.56
2023-04-01T07:00:53.303Z,6.56
2023-04-01T07:03:23.739Z,6.55
2023-04-01T07:09:03.542Z,6.55
2023-04-01T07:11:47.880Z,6.55
2023-04-01T07:17:34.827Z,6.61
2023-04-01T07:20:26.880Z,6.66
2023-04-01T07:23:10.651Z,6.72
2023-04-01T07:29:31.370Z,6.83
2023-04-01T07:32:24.888Z,6.88
2023-04-01T07:35:23.974Z,7.00
2023-04-01T07:37:58.318Z,7.08
2023-04-01T07:40:28.630Z,7.18
2023-04-01T07:43:06.064Z,7.26
2023-04-01T07:45:36.337Z,7.28
2023-04-01T07:48:11.500Z,7.33
2023-04-01T07:50:42.071Z,7.39
2023-04-01T07:53:13.195Z,7.44
2023-04-01T07:55:43.668Z,7.45
2023-04-01T07:58:14.705Z,7.47
2023-04-01T08:00:46.766Z,7.50
2023-04-01T08:03:26.390Z,7.53
2023-04-01T08:05:57.582Z,7.57
2023-04-01T08:08:29.632Z,7.55
2023-04-01T08:11:33.894Z,7.54
2023-04-01T08:14:22.540Z,7.52
2023-04-01T08:17:28.732Z,7.51
2023-04-01T08:20:01.904Z,7.51
2023-04-01T08:22:35.557Z,7.54
2023-04-01T08:25:08.517Z,7.60
2023-04-01T08:27:39.233Z,7.67
2023-04-01T08:30:17.593Z,7.77
2023-04-01T08:32:48.718Z,7.84
2023-04-01T08:35:19.264Z,7.88
2023-04-01T08:37:48.418Z,7.91
2023-04-01T08:40:41.816Z,7.93
2023-04-01T08:43:12.492Z,7.99
2023-04-01T08:45:49.995Z,8.05
2023-04-01T08:48:32.612Z,8.09
2023-04-01T08:51:08.295Z,8.11
2023-04-01T08:53:53.212Z,8.10
2023-04-01T08:56:25.049Z,8.11
2023-04-01T08:59:01.620Z,8.13
2023-04-01T09:01:41.232Z,8.16
2023-04-01T09:04:38.430Z,8.20
2023-04-01T09:07:10.949Z,8.22
2023-04-01T09:10:01.620Z,8.19
2023-04-01T09:12:35.201Z,8.16
2023-04-01T09:15:17.916Z,8.16
2023-04-01T09:17:51.348Z,8.13
2023-04-01T09:20:30.002Z,8.10
2023-04-01T09:23:07.801Z,8.11
2023-04-01T09:25:42.722Z,8.09
2023-04-01T09:28:13.755Z,8.11
2023-04-01T09:30:54.924Z,8.16
2023-04-01T09:33:34.813Z,8.23
2023-04-01T09:36:06.834Z,8.33
2023-04-01T09:38:38.828Z,8.48
2023-04-01T09:41:09.139Z,8.58
2023-04-01T09:43:53.652Z,8.60
2023-04-01T09:46:25.427Z,8.59
2023-04-01T09:49:00.264Z,8.54
2023-04-01T09:51:31.465Z,8.52
2023-04-01T09:54:03.892Z,8.58
2023-04-01T09:56:46.547Z,8.59
2023-04-01T09:59:32.117Z,8.58
2023-04-01T10:02:33.698Z,8.57
2023-04-01T10:05:20.540Z,8.55
2023-04-01T10:08:12.183Z,8.53
2023-04-01T10:10:50.555Z,8.54
2023-04-01T10:13:29.836Z,8.54
2023-04-01T10:16:03.444Z,8.55
2023-04-01T10:18:54.949Z,8.55
2023-04-01T10:21:37.294Z,8.56
2023-04-01T10:24:11.509Z,8.63
2023-04-01T10:26:49.068Z,8.73
2023-04-01T10:29:54.102Z,8.81
2023-04-01T10:32:31.436Z,8.83
2023-04-01T10:35:10.966Z,8.87
2023-04-01T10:37:46.035Z,8.91
2023-04-01T10:40:29.502Z,8.94
2023-04-01T10:43:30.083Z,8.94
2023-04-01T10:46:24.089Z,8.89
2023-04-01T10:49:07.145Z,8.85
2023-04-01T10:51:41.857Z,8.85
2023-04-01T10:54:16.682Z,8.89
2023-04-01T10:57:11.534Z,8.95
2023-04-01T11:00:15.899Z,8.96
2023-04-01T11:03:45.265Z,9.00
2023-04-01T11:06:50.655Z,9.15
2023-04-01T11:09:38.523Z,9.33
2023-04-01T11:12:13.145Z,9.45
2023-04-01T11:15:00.251Z,9.49
2023-04-01T11:17:37.882Z,9.50
2023-04-01T11:20:19.844Z,9.51
2023-04-01T11:23:07.136Z,9.52
2023-04-01T11:25:46.167Z,9.50
2023-04-01T11:28:46.769Z,9.49
2023-04-01T11:31:31.807Z,9.52
2023-04-01T11:34:03.697Z,9.52
2023-04-01T11:36:39.395Z,9.54
2023-04-01T11:39:26.407Z,9.58
2023-04-01T11:42:06.930Z,9.60
2023-04-01T11:44:59.140Z,9.62
2023-04-01T11:47:55.786Z,9.68
2023-04-01T11:50:26.743Z,9.63
2023-04-01T11:53:02.641Z,9.59
2023-04-01T11:55:33.762Z,9.56
2023-04-01T11:58:17.271Z,9.60
2023-04-01T12:00:52.450Z,9.75
2023-04-01T12:03:37.912Z,9.96
2023-04-01T12:06:26.356Z,10.18
2023-04-01T12:08:57.942Z,10.29
2023-04-01T12:11:28.087Z,10.49
2023-04-01T12:13:58.153Z,10.64
2023-04-01T12:16:32.927Z,10.66
2023-04-01T12:19:03.140Z,10.54
2023-04-01T12:21:34.363Z,10.36
2023-04-01T12:24:19.768Z,10.16
2023-04-01T12:26:56.476Z,9.94
2023-04-01T12:29:36.891Z,9.76
2023-04-01T12:32:06.261Z,9.62
2023-04-01T12:34:43.171Z,9.54
2023-04-01T12:37:14.369Z,9.55
2023-04-01T12:39:50.567Z,9.60
2023-04-01T12:42:21.403Z,9.60
2023-04-01T12:44:55.984Z,9.59
2023-04-01T12:47:41.517Z,9.61
2023-04-01T12:50:32.977Z,9.61
2023-04-01T12:53:04.812Z,9.56
2023-04-01T12:55:41.010Z,9.53
2023-04-01T12:58:21.544Z,9.58
2023-04-01T13:01:09.196Z,9.69
2023-04-01T13:03:46.144Z,9.80
2023-04-01T13:06:22.355Z,9.86
2023-04-01T13:08:53.524Z,9.95
2023-04-01T13:11:23.664Z,9.99
2023-04-01T13:14:07.407Z,10.03
2023-04-01T13:16:38.625Z,10.11
2023-04-01T13:19:08.804Z,10.18
2023-04-01T13:21:40.973Z,10.23
2023-04-01T13:24:12.409Z,10.32
2023-04-01T13:26:42.483Z,10.50
2023-04-01T13:29:13.953Z,10.68
2023-04-01T13:31:48.395Z,10.90
2023-04-01T13:34:22.383Z,11.13
2023-04-01T13:36:55.635Z,11.28
2023-04-01T13:39:33.824Z,11.48
2023-04-01T13:42:10.440Z,11.60
2023-04-01T13:44:42.467Z,11.61
2023-04-01T13:47:19.914Z,11.60
2023-04-01T13:49:57.463Z,11.54
2023-04-01T13:52:29.837Z,11.41
2023-04-01T13:55:16.502Z,11.23
2023-04-01T13:57:59.087Z,11.01
2023-04-01T14:00:32.887Z,10.90
2023-04-01T14:03:15.935Z,10.80
2023-04-01T14:05:55.581Z,10.71
2023-04-01T14:08:29.176Z,10.64
2023-04-01T14:11:05.067Z,10.65
2023-04-01T14:13:36.625Z,10.71
2023-04-01T14:16:12.641Z,11.05
2023-04-01T14:18:47.838Z,12.01
2023-04-01T14:21:22.566Z,13.08
2023-04-01T14:23:58.969Z,13.39
2023-04-01T14:26:35.345Z,13.45
2023-04-01T14:29:07.354Z,13.58
2023-04-01T14:31:47.085Z,13.96
2023-04-01T14:34:21.934Z,13.94
2023-04-01T14:36:58.077Z,13.88
2023-04-01T14:39:38.072Z,13.98
2023-04-01T14:42:21.541Z,13.73
2023-04-01T14:45:04.197Z,13.21
2023-04-01T14:47:39.339Z,12.74
2023-04-01T14:50:11.970Z,13.08
2023-04-01T14:52:42.796Z,13.27
2023-04-01T14:55:23.768Z,13.50
2023-04-01T14:58:02.581Z,13.18
2023-04-01T15:00:33.546Z,13.23
2023-04-01T15:03:05.395Z,13.12
2023-04-01T15:05:38.765Z,12.82
2023-04-01T15:08:19.286Z,12.54
2023-04-01T15:11:02.369Z,12.16
2023-04-01T15:13:40.370Z,11.75
2023-04-01T15:16:12.288Z,11.38
2023-04-01T15:18:44.732Z,11.04
2023-04-01T15:21:17.984Z,10.78
2023-04-01T15:23:50.170Z,10.59
2023-04-01T15:26:38.529Z,10.49
2023-04-01T15:29:14.952Z,10.35
2023-04-01T15:31:47.429Z,10.30
2023-04-01T15:34:20.545Z,10.24
2023-04-01T15:36:52.319Z,10.16
2023-04-01T15:39:22.166Z,10.06
2023-04-01T15:42:07.782Z,9.97
2023-04-01T15:44:40.887Z,9.88
2023-04-01T15:47:11.501Z,9.86
2023-04-01T15:49:43.251Z,9.93
2023-04-01T15:52:15.792Z,10.06
2023-04-01T15:54:54.959Z,10.17
2023-04-01T15:57:26.701Z,10.25
2023-04-01T16:00:08.263Z,10.28
2023-04-01T16:02:48.348Z,10.24
2023-04-01T16:05:26.384Z,10.19
2023-04-01T16:08:00.280Z,10.14
2023-04-01T16:10:34.755Z,10.06
2023-04-01T16:13:12.118Z,9.96
2023-04-01T16:15:41.872Z,9.90
2023-04-01T16:18:19.851Z,9.79
2023-04-01T16:20:52.369Z,9.70
2023-04-01T16:23:22.981Z,9.67
2023-04-01T16:25:54.534Z,9.66
2023-04-01T16:28:25.583Z,9.67
2023-04-01T16:30:59.520Z,9.62
2023-04-01T16:33:30.336Z,9.62
2023-04-01T16:36:00.090Z,9.63
2023-04-01T16:38:33.926Z,9.63
2023-04-01T16:41:07.171Z,9.65
2023-04-01T16:43:40.464Z,9.63
2023-04-01T16:46:23.048Z,9.58
2023-04-01T16:48:54.545Z,9.52
2023-04-01T16:51:23.326Z,9.51
2023-04-01T16:53:52.906Z,9.50
2023-04-01T16:56:24.368Z,9.48
2023-04-01T16:59:00.076Z,9.45
2023-04-01T17:01:31.014Z,9.41
2023-04-01T17:04:02.499Z,9.40
2023-04-01T17:06:33.345Z,9.39
2023-04-01T17:09:07.352Z,9.35
2023-04-01T17:11:37.795Z,9.32
2023-04-01T17:14:11.196Z,9.29
2023-04-01T17:16:48.906Z,9.24
2023-04-01T17:19:20.554Z,9.17
2023-04-01T17:21:52.860Z,9.07
2023-04-01T17:24:27.755Z,9.01
2023-04-01T17:26:58.293Z,8.93
2023-04-01T17:29:28.885Z,8.86
2023-04-01T17:32:00.029Z,8.78
2023-04-01T17:34:41.387Z,8.71
2023-04-01T17:37:17.926Z,8.61
2023-04-01T17:39:51.549Z,8.52
2023-04-01T17:42:21.703Z,8.45
2023-04-01T17:44:53.660Z,8.40
2023-04-01T17:47:28.202Z,8.37
2023-04-01T17:49:58.685Z,8.36
2023-04-01T17:52:29.488Z,8.35
2023-04-01T17:55:00.273Z,8.34
2023-04-01T17:57:32.545Z,8.36
2023-04-01T18:00:03.739Z,8.35
2023-04-01T18:02:43.172Z,8.34
2023-04-01T18:05:19.655Z,8.34
2023-04-01T18:07:57.579Z,8.33
2023-04-01T18:10:31.014Z,8.29
2023-04-01T18:13:07.102Z,8.18
2023-04-01T18:15:37.452Z,8.14
2023-04-01T18:18:10.219Z,8.04
2023-04-01T18:20:45.846Z,7.95
2023-04-01T18:23:17.215Z,7.87
2023-04-01T18:25:49.108Z,7.79
2023-04-01T18:28:19.759Z,7.83
2023-04-01T18:30:52.565Z,7.77
2023-04-01T18:33:21.947Z,7.82
2023-04-01T18:35:52.085Z,7.80
2023-04-01T18:38:22.449Z,7.79
2023-04-01T18:40:52.285Z,7.79
2023-04-01T18:43:23.268Z,7.80
2023-04-01T18:45:53.731Z,7.80
2023-04-01T18:48:35.560Z,7.77
2023-04-01T18:51:05.160Z,7.83
2023-04-01T18:53:37.401Z,7.82
2023-04-01T18:56:06.304Z,7.79
2023-04-01T18:58:38.466Z,7.78
2023-04-01T19:01:08.942Z,7.75
2023-04-01T19:03:39.847Z,7.75
2023-04-01T19:06:15.592Z,7.75
2023-04-01T19:08:44.448Z,7.75
2023-04-01T19:11:15.185Z,7.75
2023-04-01T19:13:46.751Z,7.72
2023-04-01T19:16:18.439Z,7.69
2023-04-01T19:18:50.901Z,7.68
2023-04-01T19:21:20.465Z,7.67
2023-04-01T19:24:09.017Z,7.66
2023-04-01T19:26:38.746Z,7.66
2023-04-01T19:29:08.636Z,7.66
2023-04-01T19:31:39.960Z,7.67
2023-04-01T19:34:11.738Z,7.69
2023-04-01T19:36:41.793Z,7.72
2023-04-01T19:39:15.783Z,7.74
2023-04-01T19:41:46.508Z,7.75
2023-04-01T19:44:18.482Z,7.76
2023-04-01T19:46:48.057Z,7.74
2023-04-01T19:49:25.552Z,7.73
2023-04-01T19:51:55.589Z,7.69
2023-04-01T19:54:27.072Z,7.60
2023-04-01T19:56:56.308Z,7.67
2023-04-01T19:59:26.130Z,7.67
2023-04-01T20:01:55.322Z,7.64
2023-04-01T20:04:24.765Z,7.72
2023-04-01T20:06:54.816Z,7.74
2023-04-01T20:09:31.772Z,7.76
2023-04-01T20:12:01.365Z,7.77
2023-04-01T20:14:31.912Z,7.75
2023-04-01T20:17:03.539Z,7.73
2023-04-01T20:19:35.412Z,7.75
2023-04-01T20:22:05.353Z,7.78
2023-04-01T20:24:36.314Z,7.81
2023-04-01T20:27:09.073Z,7.67
2023-04-01T20:29:39.367Z,7.78
2023-04-01T20:32:11.918Z,7.73
2023-04-01T20:34:46.927Z,7.73
2023-04-01T20:37:22.805Z,7.72
2023-04-01T20:40:01.939Z,7.72
2023-04-01T20:42:34.655Z,7.71
2023-04-01T20:45:09.285Z,7.71
2023-04-01T20:47:42.363Z,7.67
2023-04-01T20:50:13.869Z,7.69
2023-04-01T20:52:43.432Z,7.73
2023-04-01T20:55:22.102Z,7.74
2023-04-01T20:57:53.223Z,7.68
2023-04-01T21:00:25.049Z,7.74
2023-04-01T21:03:01.499Z,7.70
2023-04-01T21:05:33.876Z,7.66
2023-04-01T21:08:04.901Z,7.63
2023-04-01T21:10:38.078Z,7.62
2023-04-01T21:13:16.557Z,7.60
2023-04-01T21:15:48.599Z,7.59
2023-04-01T21:18:25.766Z,7.59
2023-04-01T21:21:01.394Z,7.57
2023-04-01T21:23:37.387Z,7.53
2023-04-01T21:26:11.664Z,7.50
2023-04-01T21:28:45.047Z,7.46
2023-04-01T21:31:21.030Z,7.43
2023-04-01T21:34:00.362Z,7.38
2023-04-01T21:36:36.123Z,7.40
2023-04-01T21:39:09.190Z,7.39
2023-04-01T21:41:44.071Z,7.39
2023-04-01T21:44:25.821Z,7.36
2023-04-01T21:47:02.997Z,7.34
2023-04-01T21:49:37.310Z,7.32
2023-04-01T21:52:16.418Z,7.30
2023-04-01T21:55:04.450Z,7.30
2023-04-01T21:57:46.901Z,7.31
2023-04-01T22:00:18.036Z,7.31
2023-04-01T22:03:23.967Z,7.30
2023-04-01T22:05:58.618Z,7.29
2023-04-01T22:08:33.413Z,7.27
2023-04-01T22:11:07.465Z,7.22
2023-04-01T22:13:42.378Z,7.20
2023-04-01T22:16:14.531Z,7.18
2023-04-01T22:18:46.710Z,7.17
2023-04-01T22:21:22.837Z,7.17
2023-04-01T22:23:52.996Z,7.17
2023-04-01T22:26:24.464Z,7.14
2023-04-01T22:28:55.402Z,7.13
2023-04-01T22:31:26.566Z,7.13
2023-04-01T22:33:58.162Z,7.15
2023-04-01T22:36:29.074Z,7.18
2023-04-01T22:39:03.726Z,7.20
2023-04-01T22:41:40.938Z,7.22
2023-04-01T22:44:10.141Z,7.24
2023-04-01T22:46:53.201Z,7.24
2023-04-01T22:49:23.513Z,7.22
2023-04-01T22:51:54.041Z,7.21
2023-04-01T22:54:24.558Z,7.22
2023-04-01T22:56:54.584Z,7.23
2023-04-01T22:59:24.804Z,7.25
2023-04-01T23:01:55.612Z,7.27
2023-04-01T23:04:27.645Z,7.28
2023-04-01T23:06:58.768Z,7.27
2023-04-01T23:09:28.700Z,7.24
2023-04-01T23:11:59.147Z,7.20
2023-04-01T23:14:37.924Z,7.18
2023-04-01T23:17:10.856Z,7.16
2023-04-01T23:19:40.146Z,7.16
2023-04-01T23:22:11.198Z,7.15
2023-04-01T23:24:40.347Z,7.17
2023-04-01T23:27:11.644Z,7.12
2023-04-01T23:29:40.999Z,7.13
2023-04-01T23:32:15.161Z,7.09
2023-04-01T23:34:47.035Z,7.06
2023-04-01T23:37:20.623Z,7.03
2023-04-01T23:39:53.013Z,7.02
2023-04-01T23:42:23.589Z,7.03
2023-04-01T23:44:54.052Z,7.04
2023-04-01T23:47:23.398Z,7.04
2023-04-01T23:49:53.041Z,7.04
2023-04-01T23:52:29.323Z,7.02
2023-04-01T23:55:00.713Z,7.01
2023-04-01T23:57:31.463Z,7.00
